sensor_id;sensor_type;location;lat;lon;timestamp;P1;durP1;ratioP1;P2;durP2;ratioP2
57105;SDS011;62662;56.788;23.942;2022-10-28T00:01:26;94.80;;;32.40;;
57105;SDS011;62662;56.788;23.942;2022-10-28T00:03:54;93.90;;;31.70;;
57105;SDS011;62662;56.788;23.942;2022-10-28T00:06:26;92.32;;;31.00;;
57105;SDS011;62662;56.788;23.942;2022-10-28T00:08:55;85.70;;;32.22;;
57105;SDS011;62662;56.788;23.942;2022-10-28T00:11:27;93.22;;;31.65;;
57105;SDS011;62662;56.788;23.942;2022-10-28T00:13:59;86.65;;;30.05;;
57105;SDS011;62662;56.788;23.942;2022-10-28T00:16:28;98.97;;;31.20;;
57105;SDS011;62662;56.788;23.942;2022-10-28T00:18:57;85.93;;;29.80;;
57105;SDS011;62662;56.788;23.942;2022-10-28T00:21:29;84.60;;;30.45;;
57105;SDS011;62662;56.788;23.942;2022-10-28T00:23:57;79.45;;;30.10;;
57105;SDS011;62662;56.788;23.942;2022-10-28T00:26:26;77.85;;;29.17;;
57105;SDS011;62662;56.788;23.942;2022-10-28T00:28:58;81.15;;;29.45;;
57105;SDS011;62662;56.788;23.942;2022-10-28T00:31:28;77.07;;;27.77;;
57105;SDS011;62662;56.788;23.942;2022-10-28T00:33:57;68.30;;;27.48;;
57105;SDS011;62662;56.788;23.942;2022-10-28T00:36:26;66.50;;;28.02;;
57105;SDS011;62662;56.788;23.942;2022-10-28T00:38:55;67.75;;;27.63;;
57105;SDS011;62662;56.788;23.942;2022-10-28T00:41:27;61.88;;;26.77;;
57105;SDS011;62662;56.788;23.942;2022-10-28T00:44:00;62.15;;;26.40;;
57105;SDS011;62662;56.788;23.942;2022-10-28T00:49:17;64.78;;;27.95;;
57105;SDS011;62662;56.788;23.942;2022-10-28T00:51:55;64.55;;;27.15;;
57105;SDS011;62662;56.788;23.942;2022-10-28T00:54:26;64.20;;;26.83;;
57105;SDS011;62662;56.788;23.942;2022-10-28T00:56:55;58.70;;;26.83;;
57105;SDS011;62662;56.788;23.942;2022-10-28T00:59:28;61.33;;;25.88;;
57105;SDS011;62662;56.788;23.942;2022-10-28T01:01:59;58.67;;;25.90;;
57105;SDS011;62662;56.788;23.942;2022-10-28T01:04:27;52.58;;;23.83;;
57105;SDS011;62662;56.788;23.942;2022-10-28T01:06:54;47.33;;;24.35;;
57105;SDS011;62662;56.788;23.942;2022-10-28T01:09:22;48.13;;;24.63;;
57105;SDS011;62662;56.788;23.942;2022-10-28T01:26:08;38.95;;;22.35;;
57105;SDS011;62662;56.788;23.942;2022-10-28T01:31:38;38.67;;;21.40;;
57105;SDS011;62662;56.788;23.942;2022-10-28T01:40:03;40.92;;;20.52;;
57105;SDS011;62662;56.788;23.942;2022-10-28T01:45:54;38.15;;;19.70;;
57105;SDS011;62662;56.788;23.942;2022-10-28T01:48:32;38.55;;;20.95;;
57105;SDS011;62662;56.788;23.942;2022-10-28T01:54:14;34.20;;;17.92;;
57105;SDS011;62662;56.788;23.942;2022-10-28T01:56:44;36.65;;;17.80;;
57105;SDS011;62662;56.788;23.942;2022-10-28T01:59:15;28.55;;;17.58;;
57105;SDS011;62662;56.788;23.942;2022-10-28T02:01:46;30.92;;;17.60;;
57105;SDS011;62662;56.788;23.942;2022-10-28T02:04:13;24.85;;;16.40;;
57105;SDS011;62662;56.788;23.942;2022-10-28T02:06:41;28.42;;;16.48;;
57105;SDS011;62662;56.788;23.942;2022-10-28T02:09:19;27.10;;;16.58;;
57105;SDS011;62662;56.788;23.942;2022-10-28T02:20:12;31.17;;;16.92;;
57105;SDS011;62662;56.788;23.942;2022-10-28T02:22:48;26.73;;;15.60;;
57105;SDS011;62662;56.788;23.942;2022-10-28T02:25:20;26.42;;;16.77;;
57105;SDS011;62662;56.788;23.942;2022-10-28T02:27:58;28.80;;;16.30;;
57105;SDS011;62662;56.788;23.942;2022-10-28T02:33:30;24.80;;;16.73;;
57105;SDS011;62662;56.788;23.942;2022-10-28T02:38:31;30.83;;;18.17;;
57105;SDS011;62662;56.788;23.942;2022-10-28T02:41:11;26.67;;;17.15;;
57105;SDS011;62662;56.788;23.942;2022-10-28T02:43:44;29.05;;;16.35;;
57105;SDS011;62662;56.788;23.942;2022-10-28T02:46:15;28.70;;;17.38;;
57105;SDS011;62662;56.788;23.942;2022-10-28T02:48:58;31.63;;;17.08;;
57105;SDS011;62662;56.788;23.942;2022-10-28T02:51:37;27.23;;;16.23;;
57105;SDS011;62662;56.788;23.942;2022-10-28T02:54:14;27.05;;;15.60;;
57105;SDS011;62662;56.788;23.942;2022-10-28T02:59:15;24.05;;;16.50;;
57105;SDS011;62662;56.788;23.942;2022-10-28T03:01:42;24.25;;;16.67;;
57105;SDS011;62662;56.788;23.942;2022-10-28T03:04:09;23.58;;;16.65;;
57105;SDS011;62662;56.788;23.942;2022-10-28T03:06:36;27.45;;;17.10;;
57105;SDS011;62662;56.788;23.942;2022-10-28T03:09:03;26.58;;;18.85;;
57105;SDS011;62662;56.788;23.942;2022-10-28T03:11:30;39.15;;;24.23;;
57105;SDS011;62662;56.788;23.942;2022-10-28T03:13:57;35.33;;;19.50;;
57105;SDS011;62662;56.788;23.942;2022-10-28T03:16:24;27.70;;;18.30;;
57105;SDS011;62662;56.788;23.942;2022-10-28T03:18:52;30.15;;;19.45;;
57105;SDS011;62662;56.788;23.942;2022-10-28T03:21:19;31.23;;;19.33;;
57105;SDS011;62662;56.788;23.942;2022-10-28T03:23:46;33.78;;;19.88;;
57105;SDS011;62662;56.788;23.942;2022-10-28T03:26:13;32.58;;;19.17;;
57105;SDS011;62662;56.788;23.942;2022-10-28T03:28:40;33.05;;;20.75;;
57105;SDS011;62662;56.788;23.942;2022-10-28T03:31:07;34.10;;;19.88;;
57105;SDS011;62662;56.788;23.942;2022-10-28T03:33:34;34.00;;;21.25;;
57105;SDS011;62662;56.788;23.942;2022-10-28T03:36:01;36.85;;;21.50;;
57105;SDS011;62662;56.788;23.942;2022-10-28T03:38:27;36.08;;;20.88;;
57105;SDS011;62662;56.788;23.942;2022-10-28T03:40:54;33.92;;;21.55;;
57105;SDS011;62662;56.788;23.942;2022-10-28T03:43:21;39.78;;;21.63;;
57105;SDS011;62662;56.788;23.942;2022-10-28T03:45:48;41.75;;;22.17;;
57105;SDS011;62662;56.788;23.942;2022-10-28T03:48:15;33.15;;;21.20;;
57105;SDS011;62662;56.788;23.942;2022-10-28T03:50:42;32.65;;;21.98;;
57105;SDS011;62662;56.788;23.942;2022-10-28T03:53:09;39.88;;;21.40;;
57105;SDS011;62662;56.788;23.942;2022-10-28T03:55:36;47.78;;;23.45;;
57105;SDS011;62662;56.788;23.942;2022-10-28T03:58:03;45.38;;;23.83;;
57105;SDS011;62662;56.788;23.942;2022-10-28T04:00:30;43.63;;;24.40;;
57105;SDS011;62662;56.788;23.942;2022-10-28T04:02:57;45.45;;;22.65;;
57105;SDS011;62662;56.788;23.942;2022-10-28T04:05:24;38.85;;;23.40;;
57105;SDS011;62662;56.788;23.942;2022-10-28T04:07:51;48.88;;;23.45;;
57105;SDS011;62662;56.788;23.942;2022-10-28T04:10:19;40.55;;;22.55;;
57105;SDS011;62662;56.788;23.942;2022-10-28T04:12:46;41.15;;;22.33;;
57105;SDS011;62662;56.788;23.942;2022-10-28T04:15:13;42.38;;;21.85;;
57105;SDS011;62662;56.788;23.942;2022-10-28T04:17:40;37.78;;;20.90;;
57105;SDS011;62662;56.788;23.942;2022-10-28T04:20:07;36.00;;;21.13;;
57105;SDS011;62662;56.788;23.942;2022-10-28T04:22:34;38.38;;;20.33;;
57105;SDS011;62662;56.788;23.942;2022-10-28T04:25:01;33.58;;;20.20;;
57105;SDS011;62662;56.788;23.942;2022-10-28T04:27:28;32.13;;;19.92;;
57105;SDS011;62662;56.788;23.942;2022-10-28T04:29:55;33.47;;;18.85;;
57105;SDS011;62662;56.788;23.942;2022-10-28T04:32:22;32.90;;;19.98;;
57105;SDS011;62662;56.788;23.942;2022-10-28T04:34:49;36.05;;;19.92;;
57105;SDS011;62662;56.788;23.942;2022-10-28T04:37:16;34.50;;;19.08;;
57105;SDS011;62662;56.788;23.942;2022-10-28T04:39:45;35.25;;;19.25;;
57105;SDS011;62662;56.788;23.942;2022-10-28T04:42:12;39.10;;;20.38;;
57105;SDS011;62662;56.788;23.942;2022-10-28T04:44:40;33.63;;;19.35;;
57105;SDS011;62662;56.788;23.942;2022-10-28T04:47:07;36.88;;;20.42;;
57105;SDS011;62662;56.788;23.942;2022-10-28T04:49:34;34.63;;;19.48;;
57105;SDS011;62662;56.788;23.942;2022-10-28T04:52:04;31.92;;;18.50;;
57105;SDS011;62662;56.788;23.942;2022-10-28T04:54:31;28.25;;;18.65;;
57105;SDS011;62662;56.788;23.942;2022-10-28T04:56:58;33.58;;;19.05;;
57105;SDS011;62662;56.788;23.942;2022-10-28T04:59:25;41.03;;;19.33;;
57105;SDS011;62662;56.788;23.942;2022-10-28T05:01:52;31.20;;;20.00;;
57105;SDS011;62662;56.788;23.942;2022-10-28T05:04:19;32.45;;;19.23;;
57105;SDS011;62662;56.788;23.942;2022-10-28T05:06:46;33.25;;;18.63;;
57105;SDS011;62662;56.788;23.942;2022-10-28T05:09:14;33.28;;;20.08;;
57105;SDS011;62662;56.788;23.942;2022-10-28T05:11:41;32.17;;;20.25;;
57105;SDS011;62662;56.788;23.942;2022-10-28T05:14:08;40.53;;;20.90;;
57105;SDS011;62662;56.788;23.942;2022-10-28T05:16:35;38.05;;;20.05;;
57105;SDS011;62662;56.788;23.942;2022-10-28T05:19:02;38.78;;;19.13;;
57105;SDS011;62662;56.788;23.942;2022-10-28T05:21:29;41.85;;;18.73;;
57105;SDS011;62662;56.788;23.942;2022-10-28T05:23:56;36.72;;;19.88;;
57105;SDS011;62662;56.788;23.942;2022-10-28T05:26:23;43.50;;;20.77;;
57105;SDS011;62662;56.788;23.942;2022-10-28T05:28:50;37.88;;;19.42;;
57105;SDS011;62662;56.788;23.942;2022-10-28T05:31:17;37.00;;;20.20;;
57105;SDS011;62662;56.788;23.942;2022-10-28T05:33:45;39.95;;;21.48;;
57105;SDS011;62662;56.788;23.942;2022-10-28T05:36:12;35.33;;;18.55;;
57105;SDS011;62662;56.788;23.942;2022-10-28T05:38:39;38.08;;;18.80;;
57105;SDS011;62662;56.788;23.942;2022-10-28T05:41:08;34.47;;;19.08;;
57105;SDS011;62662;56.788;23.942;2022-10-28T05:43:35;34.72;;;18.88;;
57105;SDS011;62662;56.788;23.942;2022-10-28T05:46:01;37.10;;;19.08;;
57105;SDS011;62662;56.788;23.942;2022-10-28T05:48:30;37.63;;;17.88;;
57105;SDS011;62662;56.788;23.942;2022-10-28T05:50:58;32.67;;;17.33;;
57105;SDS011;62662;56.788;23.942;2022-10-28T05:53:25;30.25;;;17.63;;
57105;SDS011;62662;56.788;23.942;2022-10-28T05:55:53;30.85;;;16.83;;
57105;SDS011;62662;56.788;23.942;2022-10-28T05:58:20;37.22;;;14.88;;
57105;SDS011;62662;56.788;23.942;2022-10-28T06:00:47;30.20;;;15.82;;
57105;SDS011;62662;56.788;23.942;2022-10-28T06:03:14;30.13;;;14.85;;
57105;SDS011;62662;56.788;23.942;2022-10-28T06:05:42;28.15;;;14.18;;
57105;SDS011;62662;56.788;23.942;2022-10-28T06:08:11;27.50;;;14.07;;
57105;SDS011;62662;56.788;23.942;2022-10-28T06:10:39;20.05;;;13.27;;
57105;SDS011;62662;56.788;23.942;2022-10-28T06:13:07;25.90;;;13.30;;
57105;SDS011;62662;56.788;23.942;2022-10-28T06:15:34;20.48;;;11.98;;
57105;SDS011;62662;56.788;23.942;2022-10-28T06:18:02;24.13;;;12.13;;
57105;SDS011;62662;56.788;23.942;2022-10-28T06:20:29;20.23;;;11.05;;
57105;SDS011;62662;56.788;23.942;2022-10-28T06:22:57;19.90;;;11.73;;
57105;SDS011;62662;56.788;23.942;2022-10-28T06:25:24;17.83;;;10.40;;
57105;SDS011;62662;56.788;23.942;2022-10-28T06:30:22;17.70;;;9.98;;
57105;SDS011;62662;56.788;23.942;2022-10-28T06:32:50;16.98;;;9.43;;
57105;SDS011;62662;56.788;23.942;2022-10-28T06:35:18;17.17;;;9.10;;
57105;SDS011;62662;56.788;23.942;2022-10-28T06:37:45;13.75;;;9.40;;
57105;SDS011;62662;56.788;23.942;2022-10-28T06:40:12;16.65;;;8.43;;
57105;SDS011;62662;56.788;23.942;2022-10-28T06:42:39;21.25;;;9.13;;
57105;SDS011;62662;56.788;23.942;2022-10-28T06:45:06;16.85;;;8.35;;
57105;SDS011;62662;56.788;23.942;2022-10-28T06:47:33;18.20;;;7.70;;
57105;SDS011;62662;56.788;23.942;2022-10-28T06:50:06;18.48;;;8.30;;
57105;SDS011;62662;56.788;23.942;2022-10-28T06:52:34;19.38;;;8.35;;
57105;SDS011;62662;56.788;23.942;2022-10-28T06:55:01;24.08;;;7.90;;
57105;SDS011;62662;56.788;23.942;2022-10-28T06:57:28;22.48;;;8.35;;
57105;SDS011;62662;56.788;23.942;2022-10-28T06:59:56;16.15;;;8.18;;
57105;SDS011;62662;56.788;23.942;2022-10-28T07:02:23;17.33;;;7.60;;
57105;SDS011;62662;56.788;23.942;2022-10-28T07:04:50;14.82;;;7.25;;
57105;SDS011;62662;56.788;23.942;2022-10-28T07:07:18;17.00;;;7.85;;
57105;SDS011;62662;56.788;23.942;2022-10-28T07:09:45;14.35;;;7.97;;
57105;SDS011;62662;56.788;23.942;2022-10-28T07:12:12;16.90;;;8.25;;
57105;SDS011;62662;56.788;23.942;2022-10-28T07:14:40;13.00;;;7.35;;
57105;SDS011;62662;56.788;23.942;2022-10-28T07:17:07;16.05;;;8.00;;
57105;SDS011;62662;56.788;23.942;2022-10-28T07:19:34;15.43;;;7.93;;
57105;SDS011;62662;56.788;23.942;2022-10-28T07:22:01;20.85;;;7.45;;
57105;SDS011;62662;56.788;23.942;2022-10-28T07:24:28;13.70;;;7.38;;
57105;SDS011;62662;56.788;23.942;2022-10-28T07:26:55;13.98;;;7.13;;
57105;SDS011;62662;56.788;23.942;2022-10-28T07:29:23;16.77;;;7.82;;
57105;SDS011;62662;56.788;23.942;2022-10-28T07:31:52;20.08;;;7.40;;
57105;SDS011;62662;56.788;23.942;2022-10-28T07:34:20;17.95;;;7.93;;
57105;SDS011;62662;56.788;23.942;2022-10-28T07:36:53;13.00;;;6.25;;
57105;SDS011;62662;56.788;23.942;2022-10-28T07:39:20;17.58;;;7.20;;
57105;SDS011;62662;56.788;23.942;2022-10-28T07:41:48;15.65;;;6.85;;
57105;SDS011;62662;56.788;23.942;2022-10-28T07:44:15;14.70;;;6.57;;
57105;SDS011;62662;56.788;23.942;2022-10-28T07:46:42;23.55;;;6.95;;
57105;SDS011;62662;56.788;23.942;2022-10-28T07:49:09;16.00;;;6.55;;
57105;SDS011;62662;56.788;23.942;2022-10-28T07:51:36;12.00;;;5.82;;
57105;SDS011;62662;56.788;23.942;2022-10-28T07:54:03;11.10;;;6.07;;
57105;SDS011;62662;56.788;23.942;2022-10-28T07:56:30;16.08;;;6.68;;
57105;SDS011;62662;56.788;23.942;2022-10-28T07:58:58;15.88;;;5.80;;
57105;SDS011;62662;56.788;23.942;2022-10-28T08:01:26;16.42;;;6.05;;
57105;SDS011;62662;56.788;23.942;2022-10-28T08:03:53;11.60;;;5.97;;
57105;SDS011;62662;56.788;23.942;2022-10-28T08:06:20;12.57;;;5.97;;
57105;SDS011;62662;56.788;23.942;2022-10-28T08:08:48;12.60;;;6.22;;
57105;SDS011;62662;56.788;23.942;2022-10-28T08:11:19;14.32;;;6.68;;
57105;SDS011;62662;56.788;23.942;2022-10-28T08:13:51;10.85;;;5.55;;
57105;SDS011;62662;56.788;23.942;2022-10-28T08:16:20;10.52;;;5.75;;
57105;SDS011;62662;56.788;23.942;2022-10-28T08:18:47;12.98;;;6.10;;
57105;SDS011;62662;56.788;23.942;2022-10-28T08:21:15;12.20;;;5.80;;
57105;SDS011;62662;56.788;23.942;2022-10-28T08:23:42;13.57;;;6.45;;
57105;SDS011;62662;56.788;23.942;2022-10-28T08:26:15;13.75;;;6.18;;
57105;SDS011;62662;56.788;23.942;2022-10-28T08:28:43;12.43;;;7.03;;
57105;SDS011;62662;56.788;23.942;2022-10-28T08:31:10;10.60;;;7.45;;
57105;SDS011;62662;56.788;23.942;2022-10-28T08:33:39;15.43;;;6.40;;
57105;SDS011;62662;56.788;23.942;2022-10-28T08:36:13;17.35;;;6.38;;
57105;SDS011;62662;56.788;23.942;2022-10-28T08:38:42;12.98;;;7.30;;
57105;SDS011;62662;56.788;23.942;2022-10-28T08:49:11;19.42;;;8.85;;
57105;SDS011;62662;56.788;23.942;2022-10-28T08:54:25;14.73;;;9.05;;
57105;SDS011;62662;56.788;23.942;2022-10-28T08:56:58;13.68;;;9.05;;
57105;SDS011;62662;56.788;23.942;2022-10-28T08:59:33;19.80;;;9.55;;
57105;SDS011;62662;56.788;23.942;2022-10-28T09:02:17;16.92;;;10.00;;
57105;SDS011;62662;56.788;23.942;2022-10-28T09:04:49;18.52;;;9.45;;
57105;SDS011;62662;56.788;23.942;2022-10-28T09:07:29;17.20;;;8.93;;
57105;SDS011;62662;56.788;23.942;2022-10-28T09:10:02;15.80;;;9.15;;
57105;SDS011;62662;56.788;23.942;2022-10-28T09:23:15;15.93;;;9.82;;
57105;SDS011;62662;56.788;23.942;2022-10-28T09:29:12;20.27;;;9.80;;
57105;SDS011;62662;56.788;23.942;2022-10-28T09:35:07;17.50;;;8.80;;
57105;SDS011;62662;56.788;23.942;2022-10-28T09:37:43;14.95;;;8.38;;
57105;SDS011;62662;56.788;23.942;2022-10-28T09:42:52;15.65;;;8.30;;
57105;SDS011;62662;56.788;23.942;2022-10-28T09:45:24;21.38;;;8.73;;
57105;SDS011;62662;56.788;23.942;2022-10-28T09:48:03;20.63;;;9.05;;
57105;SDS011;62662;56.788;23.942;2022-10-28T09:50:40;15.43;;;8.80;;
57105;SDS011;62662;56.788;23.942;2022-10-28T09:58:11;15.68;;;7.65;;
57105;SDS011;62662;56.788;23.942;2022-10-28T10:00:39;20.45;;;7.75;;
57105;SDS011;62662;56.788;23.942;2022-10-28T10:03:06;19.75;;;8.30;;
57105;SDS011;62662;56.788;23.942;2022-10-28T10:05:42;16.77;;;7.82;;
57105;SDS011;62662;56.788;23.942;2022-10-28T10:08:14;18.77;;;8.32;;
57105;SDS011;62662;56.788;23.942;2022-10-28T10:10:51;18.95;;;8.13;;
57105;SDS011;62662;56.788;23.942;2022-10-28T10:13:24;18.83;;;8.60;;
57105;SDS011;62662;56.788;23.942;2022-10-28T10:15:57;17.58;;;7.85;;
57105;SDS011;62662;56.788;23.942;2022-10-28T10:18:30;15.27;;;7.40;;
57105;SDS011;62662;56.788;23.942;2022-10-28T10:21:02;17.70;;;7.30;;
57105;SDS011;62662;56.788;23.942;2022-10-28T10:23:34;17.55;;;7.97;;
57105;SDS011;62662;56.788;23.942;2022-10-28T10:26:04;21.08;;;7.88;;
57105;SDS011;62662;56.788;23.942;2022-10-28T10:28:43;14.43;;;8.18;;
57105;SDS011;62662;56.788;23.942;2022-10-28T10:31:18;18.77;;;8.18;;
57105;SDS011;62662;56.788;23.942;2022-10-28T10:33:48;16.48;;;8.15;;
57105;SDS011;62662;56.788;23.942;2022-10-28T10:36:21;18.92;;;7.80;;
57105;SDS011;62662;56.788;23.942;2022-10-28T10:38:54;14.27;;;7.25;;
57105;SDS011;62662;56.788;23.942;2022-10-28T10:44:21;21.08;;;8.25;;
57105;SDS011;62662;56.788;23.942;2022-10-28T10:49:32;15.75;;;8.35;;
57105;SDS011;62662;56.788;23.942;2022-10-28T10:54:47;15.43;;;9.50;;
57105;SDS011;62662;56.788;23.942;2022-10-28T10:57:23;20.60;;;8.18;;
57105;SDS011;62662;56.788;23.942;2022-10-28T10:59:52;16.33;;;7.60;;
57105;SDS011;62662;56.788;23.942;2022-10-28T11:02:29;20.08;;;8.32;;
57105;SDS011;62662;56.788;23.942;2022-10-28T11:05:01;15.68;;;8.23;;
57105;SDS011;62662;56.788;23.942;2022-10-28T11:07:31;17.33;;;8.65;;
57105;SDS011;62662;56.788;23.942;2022-10-28T11:09:59;22.13;;;8.52;;
57105;SDS011;62662;56.788;23.942;2022-10-28T11:12:28;14.55;;;7.30;;
57105;SDS011;62662;56.788;23.942;2022-10-28T11:15:01;14.05;;;7.43;;
57105;SDS011;62662;56.788;23.942;2022-10-28T11:17:41;19.15;;;9.20;;
57105;SDS011;62662;56.788;23.942;2022-10-28T11:23:40;16.35;;;8.75;;
57105;SDS011;62662;56.788;23.942;2022-10-28T11:26:19;17.00;;;8.90;;
57105;SDS011;62662;56.788;23.942;2022-10-28T11:31:48;19.25;;;9.25;;
57105;SDS011;62662;56.788;23.942;2022-10-28T11:39:25;23.70;;;9.80;;
57105;SDS011;62662;56.788;23.942;2022-10-28T11:52:48;21.02;;;9.35;;
57105;SDS011;62662;56.788;23.942;2022-10-28T11:55:55;16.25;;;8.48;;
57105;SDS011;62662;56.788;23.942;2022-10-28T12:06:49;20.67;;;8.07;;
57105;SDS011;62662;56.788;23.942;2022-10-28T12:10:29;17.40;;;9.50;;
57105;SDS011;62662;56.788;23.942;2022-10-28T12:23:58;16.20;;;8.75;;
57105;SDS011;62662;56.788;23.942;2022-10-28T12:26:33;14.23;;;8.00;;
57105;SDS011;62662;56.788;23.942;2022-10-28T12:29:07;18.42;;;8.00;;
57105;SDS011;62662;56.788;23.942;2022-10-28T12:32:03;17.65;;;7.50;;
57105;SDS011;62662;56.788;23.942;2022-10-28T12:35:11;14.68;;;7.38;;
57105;SDS011;62662;56.788;23.942;2022-10-28T12:37:44;12.95;;;7.22;;
57105;SDS011;62662;56.788;23.942;2022-10-28T12:40:19;12.52;;;7.43;;
57105;SDS011;62662;56.788;23.942;2022-10-28T12:42:53;18.20;;;7.68;;
57105;SDS011;62662;56.788;23.942;2022-10-28T12:45:35;15.82;;;7.78;;
57105;SDS011;62662;56.788;23.942;2022-10-28T12:53:48;20.08;;;8.40;;
57105;SDS011;62662;56.788;23.942;2022-10-28T12:56:29;16.80;;;7.82;;
57105;SDS011;62662;56.788;23.942;2022-10-28T12:59:16;13.00;;;7.28;;
57105;SDS011;62662;56.788;23.942;2022-10-28T13:01:53;13.75;;;7.40;;
57105;SDS011;62662;56.788;23.942;2022-10-28T13:04:22;19.88;;;7.47;;
57105;SDS011;62662;56.788;23.942;2022-10-28T13:12:41;20.77;;;8.38;;
57105;SDS011;62662;56.788;23.942;2022-10-28T13:23:49;12.73;;;8.02;;
57105;SDS011;62662;56.788;23.942;2022-10-28T13:28:53;20.58;;;7.85;;
57105;SDS011;62662;56.788;23.942;2022-10-28T13:31:23;15.30;;;7.47;;
57105;SDS011;62662;56.788;23.942;2022-10-28T13:34:07;21.05;;;8.90;;
57105;SDS011;62662;56.788;23.942;2022-10-28T13:36:38;22.67;;;9.68;;
57105;SDS011;62662;56.788;23.942;2022-10-28T13:39:22;20.10;;;8.60;;
57105;SDS011;62662;56.788;23.942;2022-10-28T13:44:49;20.80;;;8.25;;
57105;SDS011;62662;56.788;23.942;2022-10-28T13:47:22;16.92;;;8.65;;
57105;SDS011;62662;56.788;23.942;2022-10-28T13:52:33;17.48;;;8.75;;
57105;SDS011;62662;56.788;23.942;2022-10-28T13:57:50;18.05;;;9.05;;
57105;SDS011;62662;56.788;23.942;2022-10-28T14:03:31;18.45;;;10.30;;
57105;SDS011;62662;56.788;23.942;2022-10-28T14:05:56;20.45;;;11.32;;
57105;SDS011;62662;56.788;23.942;2022-10-28T14:13:30;24.48;;;11.88;;
57105;SDS011;62662;56.788;23.942;2022-10-28T14:16:15;29.92;;;13.43;;
57105;SDS011;62662;56.788;23.942;2022-10-28T14:19:03;25.17;;;10.65;;
57105;SDS011;62662;56.788;23.942;2022-10-28T14:34:57;21.80;;;11.25;;
57105;SDS011;62662;56.788;23.942;2022-10-28T14:37:46;29.42;;;12.68;;
57105;SDS011;62662;56.788;23.942;2022-10-28T14:43:32;26.17;;;11.30;;
57105;SDS011;62662;56.788;23.942;2022-10-28T14:46:43;27.75;;;12.98;;
57105;SDS011;62662;56.788;23.942;2022-10-28T14:49:31;30.83;;;14.23;;
57105;SDS011;62662;56.788;23.942;2022-10-28T14:52:17;31.17;;;13.32;;
57105;SDS011;62662;56.788;23.942;2022-10-28T14:54:48;26.63;;;13.45;;
57105;SDS011;62662;56.788;23.942;2022-10-28T14:57:30;23.85;;;12.25;;
57105;SDS011;62662;56.788;23.942;2022-10-28T15:00:01;26.40;;;15.38;;
57105;SDS011;62662;56.788;23.942;2022-10-28T15:02:31;37.50;;;20.60;;
57105;SDS011;62662;56.788;23.942;2022-10-28T15:07:38;34.42;;;20.35;;
57105;SDS011;62662;56.788;23.942;2022-10-28T15:12:42;34.92;;;15.32;;
57105;SDS011;62662;56.788;23.942;2022-10-28T15:15:18;41.13;;;22.40;;
57105;SDS011;62662;56.788;23.942;2022-10-28T15:22:49;33.28;;;18.77;;
57105;SDS011;62662;56.788;23.942;2022-10-28T15:25:17;39.40;;;17.67;;
57105;SDS011;62662;56.788;23.942;2022-10-28T15:27:46;29.45;;;16.23;;
57105;SDS011;62662;56.788;23.942;2022-10-28T15:30:24;35.53;;;15.88;;
57105;SDS011;62662;56.788;23.942;2022-10-28T15:32:52;30.50;;;16.77;;
57105;SDS011;62662;56.788;23.942;2022-10-28T15:35:34;26.67;;;13.68;;
57105;SDS011;62662;56.788;23.942;2022-10-28T15:40:48;38.45;;;14.55;;
57105;SDS011;62662;56.788;23.942;2022-10-28T15:43:17;30.67;;;16.08;;
57105;SDS011;62662;56.788;23.942;2022-10-28T15:46:09;29.02;;;16.38;;
57105;SDS011;62662;56.788;23.942;2022-10-28T15:48:41;26.10;;;14.25;;
57105;SDS011;62662;56.788;23.942;2022-10-28T15:51:13;33.25;;;16.90;;
57105;SDS011;62662;56.788;23.942;2022-10-28T15:53:50;28.77;;;18.00;;
57105;SDS011;62662;56.788;23.942;2022-10-28T15:59:25;33.70;;;16.80;;
57105;SDS011;62662;56.788;23.942;2022-10-28T16:01:52;33.28;;;16.50;;
57105;SDS011;62662;56.788;23.942;2022-10-28T16:06:53;30.77;;;17.80;;
57105;SDS011;62662;56.788;23.942;2022-10-28T16:12:04;29.60;;;16.30;;
57105;SDS011;62662;56.788;23.942;2022-10-28T16:14:44;30.30;;;17.17;;
57105;SDS011;62662;56.788;23.942;2022-10-28T16:19:48;33.35;;;16.60;;
57105;SDS011;62662;56.788;23.942;2022-10-28T16:22:23;25.92;;;16.38;;
57105;SDS011;62662;56.788;23.942;2022-10-28T16:24:52;28.08;;;15.30;;
57105;SDS011;62662;56.788;23.942;2022-10-28T16:29:49;27.63;;;15.10;;
57105;SDS011;62662;56.788;23.942;2022-10-28T16:32:23;28.65;;;16.95;;
57105;SDS011;62662;56.788;23.942;2022-10-28T16:34:57;29.52;;;17.15;;
57105;SDS011;62662;56.788;23.942;2022-10-28T16:37:26;30.35;;;17.10;;
57105;SDS011;62662;56.788;23.942;2022-10-28T16:39:55;26.90;;;17.73;;
57105;SDS011;62662;56.788;23.942;2022-10-28T16:42:23;27.80;;;19.13;;
57105;SDS011;62662;56.788;23.942;2022-10-28T16:44:51;31.02;;;18.30;;
57105;SDS011;62662;56.788;23.942;2022-10-28T16:47:20;34.28;;;19.70;;
57105;SDS011;62662;56.788;23.942;2022-10-28T16:49:51;30.88;;;18.98;;
57105;SDS011;62662;56.788;23.942;2022-10-28T16:52:24;32.33;;;20.25;;
57105;SDS011;62662;56.788;23.942;2022-10-28T16:54:54;32.33;;;19.45;;
57105;SDS011;62662;56.788;23.942;2022-10-28T16:57:22;30.05;;;18.90;;
57105;SDS011;62662;56.788;23.942;2022-10-28T16:59:51;29.20;;;19.08;;
57105;SDS011;62662;56.788;23.942;2022-10-28T17:04:55;31.27;;;19.50;;
57105;SDS011;62662;56.788;23.942;2022-10-28T17:07:23;26.98;;;19.17;;
57105;SDS011;62662;56.788;23.942;2022-10-28T17:09:52;30.60;;;19.30;;
57105;SDS011;62662;56.788;23.942;2022-10-28T17:12:20;36.38;;;21.40;;
57105;SDS011;62662;56.788;23.942;2022-10-28T17:14:49;34.83;;;21.77;;
57105;SDS011;62662;56.788;23.942;2022-10-28T17:17:18;31.92;;;20.88;;
57105;SDS011;62662;56.788;23.942;2022-10-28T17:19:46;48.40;;;26.05;;
57105;SDS011;62662;56.788;23.942;2022-10-28T17:22:13;39.95;;;25.33;;
57105;SDS011;62662;56.788;23.942;2022-10-28T17:24:43;47.72;;;29.45;;
57105;SDS011;62662;56.788;23.942;2022-10-28T17:27:11;36.42;;;25.23;;
57105;SDS011;62662;56.788;23.942;2022-10-28T17:29:39;37.20;;;24.45;;
57105;SDS011;62662;56.788;23.942;2022-10-28T17:32:07;36.47;;;23.85;;
57105;SDS011;62662;56.788;23.942;2022-10-28T17:34:35;46.15;;;28.92;;
57105;SDS011;62662;56.788;23.942;2022-10-28T17:37:02;32.95;;;22.05;;
57105;SDS011;62662;56.788;23.942;2022-10-28T17:39:30;37.70;;;23.17;;
57105;SDS011;62662;56.788;23.942;2022-10-28T17:41:57;35.95;;;24.27;;
57105;SDS011;62662;56.788;23.942;2022-10-28T17:44:25;34.65;;;24.13;;
57105;SDS011;62662;56.788;23.942;2022-10-28T17:46:52;35.42;;;22.25;;
57105;SDS011;62662;56.788;23.942;2022-10-28T17:49:20;29.83;;;20.90;;
57105;SDS011;62662;56.788;23.942;2022-10-28T17:51:47;26.92;;;18.90;;
57105;SDS011;62662;56.788;23.942;2022-10-28T17:54:16;30.05;;;19.27;;
57105;SDS011;62662;56.788;23.942;2022-10-28T17:56:43;27.92;;;20.70;;
57105;SDS011;62662;56.788;23.942;2022-10-28T17:59:13;31.55;;;20.42;;
57105;SDS011;62662;56.788;23.942;2022-10-28T18:01:40;30.88;;;21.33;;
57105;SDS011;62662;56.788;23.942;2022-10-28T18:04:07;32.08;;;21.10;;
57105;SDS011;62662;56.788;23.942;2022-10-28T18:06:37;37.15;;;22.13;;
57105;SDS011;62662;56.788;23.942;2022-10-28T18:09:08;32.40;;;21.52;;
57105;SDS011;62662;56.788;23.942;2022-10-28T18:11:37;30.08;;;20.52;;
57105;SDS011;62662;56.788;23.942;2022-10-28T18:14:05;29.67;;;21.08;;
57105;SDS011;62662;56.788;23.942;2022-10-28T18:16:34;31.40;;;22.55;;